createdAt,value
2017-11-18T00:00:52.363Z,93.13
2017-11-18T00:01:58.600Z,93.10
2017-11-18T00:03:04.708Z,92.82
2017-11-18T00:04:10.784Z,92.52
2017-11-18T00:05:16.698Z,92.31
2017-11-18T00:06:22.853Z,93.24
2017-11-18T00:07:28.933Z,93.31
2017-11-18T00:08:34.992Z,93.84
2017-11-18T00:09:41.062Z,94.56
2017-11-18T00:10:47.170Z,94.50
2017-11-18T00:11:58.216Z,94.47
2017-11-18T00:13:04.326Z,94.35
2017-11-18T00:14:10.435Z,94.55
2017-11-18T00:15:16.589Z,94.64
2017-11-18T00:16:23.461Z,94.69
2017-11-18T00:17:29.555Z,94.41
2017-11-18T00:18:35.666Z,94.50
2017-11-18T00:19:41.754Z,94.53
2017-11-18T00:20:47.906Z,94.73
2017-11-18T00:21:53.998Z,94.55
2017-11-18T00:23:02.227Z,94.61
2017-11-18T00:24:08.313Z,94.76
2017-11-18T00:25:14.380Z,94.89
2017-11-18T00:26:20.483Z,95.03
2017-11-18T00:27:26.583Z,94.97
2017-11-18T00:28:32.688Z,94.83
2017-11-18T00:29:38.800Z,95.10
2017-11-18T00:30:45.549Z,95.43
2017-11-18T00:31:52.161Z,95.22
2017-11-18T00:32:58.274Z,95.31
2017-11-18T00:34:04.439Z,95.43
2017-11-18T00:35:10.561Z,95.47
2017-11-18T00:36:16.693Z,95.23
2017-11-18T00:37:22.800Z,95.21
2017-11-18T00:38:28.568Z,95.10
2017-11-18T00:39:34.623Z,95.29
2017-11-18T00:40:40.709Z,95.21
2017-11-18T00:41:47.128Z,94.68
2017-11-18T00:42:53.194Z,94.81
2017-11-18T00:43:59.255Z,95.33
2017-11-18T00:45:05.365Z,95.71
2017-11-18T00:46:12.334Z,95.84
2017-11-18T00:47:18.480Z,95.62
2017-11-18T00:48:24.638Z,95.05
2017-11-18T00:49:30.818Z,94.52
2017-11-18T00:50:37.020Z,94.65
2017-11-18T00:51:43.071Z,94.65
2017-11-18T00:52:49.167Z,94.49
2017-11-18T00:53:55.369Z,94.37
2017-11-18T00:55:00.801Z,94.23
2017-11-18T00:56:06.975Z,93.84
2017-11-18T00:57:13.066Z,93.06
2017-11-18T00:58:19.179Z,91.62
2017-11-18T00:59:25.567Z,91.28
2017-11-18T01:00:31.679Z,91.04
2017-11-18T01:01:37.585Z,91.30
2017-11-18T01:02:43.689Z,91.00
2017-11-18T01:03:49.770Z,91.05
2017-11-18T01:04:55.866Z,91.91
2017-11-18T01:06:01.952Z,92.51
2017-11-18T01:07:09.933Z,92.80
2017-11-18T01:08:16.820Z,93.21
2017-11-18T01:09:22.925Z,92.98
2017-11-18T01:10:29.027Z,93.31
2017-11-18T01:11:35.189Z,93.25
2017-11-18T01:12:41.037Z,93.30
2017-11-18T01:13:53.248Z,93.12
2017-11-18T01:14:59.332Z,92.82
2017-11-18T01:16:05.847Z,92.72
2017-11-18T01:17:11.925Z,92.75
2017-11-18T01:18:17.992Z,92.78
2017-11-18T01:19:24.095Z,92.87
2017-11-18T01:20:30.179Z,93.26
2017-11-18T01:21:41.174Z,93.38
2017-11-18T01:22:47.297Z,93.67
2017-11-18T01:23:53.381Z,93.52
2017-11-18T01:24:59.262Z,93.40
2017-11-18T01:26:05.379Z,93.65
2017-11-18T01:27:11.505Z,93.66
2017-11-18T01:28:17.649Z,93.30
2017-11-18T01:29:26.618Z,93.11
2017-11-18T01:30:32.709Z,92.99
2017-11-18T01:31:45.031Z,92.58
2017-11-18T01:32:51.228Z,92.35
2017-11-18T01:33:57.314Z,92.53
2017-11-18T01:35:03.083Z,92.77
2017-11-18T01:36:09.184Z,92.84
2017-11-18T01:37:15.308Z,92.71
2017-11-18T01:38:21.405Z,92.64
2017-11-18T01:39:27.505Z,92.20
2017-11-18T01:40:34.215Z,91.95
2017-11-18T01:41:40.339Z,91.33
2017-11-18T01:42:46.436Z,91.07
2017-11-18T01:43:52.519Z,91.17
2017-11-18T01:44:58.279Z,91.36
2017-11-18T01:46:04.410Z,91.74
2017-11-18T01:47:10.538Z,91.25
2017-11-18T01:48:16.675Z,91.33
2017-11-18T01:49:22.797Z,91.67
2017-11-18T01:50:28.578Z,91.75
2017-11-18T01:51:34.833Z,91.56
2017-11-18T01:52:40.996Z,91.86
2017-11-18T01:53:46.726Z,92.05
2017-11-18T01:54:52.801Z,92.03
2017-11-18T01:55:58.877Z,91.83
2017-11-18T01:57:05.311Z,92.16
2017-11-18T01:58:17.558Z,92.85
2017-11-18T01:59:23.612Z,92.94
2017-11-18T02:00:29.476Z,92.91
2017-11-18T02:01:34.302Z,93.09
2017-11-18T02:02:44.988Z,93.12
2017-11-18T02:03:51.049Z,93.35
2017-11-18T02:04:56.928Z,93.28
2017-11-18T02:06:02.368Z,93.12
2017-11-18T02:07:08.470Z,93.33
2017-11-18T02:08:14.547Z,93.47
2017-11-18T02:09:20.636Z,93.32
2017-11-18T02:10:26.817Z,93.16
2017-11-18T02:11:32.927Z,93.17
2017-11-18T02:12:38.710Z,93.35
2017-11-18T02:13:44.838Z,93.43
2017-11-18T02:14:50.916Z,93.58
2017-11-18T02:15:57.036Z,93.31
2017-11-18T02:17:03.086Z,93.49
2017-11-18T02:18:09.544Z,93.86
2017-11-18T02:19:15.293Z,93.81
2017-11-18T02:20:20.509Z,94.04
2017-11-18T02:21:25.912Z,93.91
2017-11-18T02:22:31.274Z,93.93
2017-11-18T02:23:37.087Z,94.05
2017-11-18T02:24:42.489Z,93.95
2017-11-18T02:25:47.672Z,93.66
2017-11-18T02:26:53.208Z,93.49
2017-11-18T02:27:58.641Z,93.65
2017-11-18T02:29:04.039Z,93.69
2017-11-18T02:30:09.200Z,94.03
2017-11-18T02:31:14.645Z,94.06
2017-11-18T02:32:20.042Z,93.96
2017-11-18T02:33:25.478Z,94.07
2017-11-18T02:34:30.866Z,93.83
2017-11-18T02:35:36.252Z,93.90
2017-11-18T02:36:41.803Z,93.87
2017-11-18T02:37:47.364Z,94.12
2017-11-18T02:38:52.845Z,94.24
2017-11-18T02:40:01.198Z,94.64
2017-11-18T02:41:06.415Z,94.98
2017-11-18T02:42:11.885Z,95.11
2017-11-18T02:43:17.095Z,95.37
2017-11-18T02:44:24.347Z,95.57
2017-11-18T02:45:29.751Z,95.56
2017-11-18T02:46:35.178Z,95.55
2017-11-18T02:47:40.752Z,95.81
2017-11-18T02:48:45.961Z,95.89
2017-11-18T02:49:51.660Z,95.80
2017-11-18T02:50:57.031Z,95.82
2017-11-18T02:52:02.411Z,95.92
2017-11-18T02:53:07.615Z,95.95
2017-11-18T02:54:14.092Z,96.25
2017-11-18T02:55:19.839Z,95.90
2017-11-18T02:56:25.636Z,95.60
2017-11-18T02:57:31.497Z,95.22
2017-11-18T02:58:36.712Z,95.66
2017-11-18T02:59:42.099Z,95.60
2017-11-18T03:00:48.207Z,95.85
2017-11-18T03:01:54.285Z,96.07
2017-11-18T03:03:00.436Z,96.04
2017-11-18T03:04:06.595Z,96.13
2017-11-18T03:05:12.656Z,96.03
2017-11-18T03:06:18.565Z,96.06
2017-11-18T03:07:24.484Z,95.98
2017-11-18T03:08:30.248Z,96.10
2017-11-18T03:09:36.374Z,95.92
2017-11-18T03:10:42.497Z,95.81
2017-11-18T03:11:51.394Z,95.82
2017-11-18T03:12:57.200Z,95.78
2017-11-18T03:14:03.676Z,95.84
2017-11-18T03:15:09.442Z,95.68
2017-11-18T03:16:15.570Z,96.04
2017-11-18T03:17:21.699Z,95.97
2017-11-18T03:18:28.738Z,95.75
2017-11-18T03:19:34.819Z,95.46
2017-11-18T03:20:41.022Z,95.51
2017-11-18T03:21:46.741Z,95.56
2017-11-18T03:22:52.830Z,95.66
2017-11-18T03:23:58.565Z,95.46
2017-11-18T03:25:04.031Z,95.01
2017-11-18T03:26:10.161Z,94.90
2017-11-18T03:27:15.571Z,94.75
2017-11-18T03:28:21.680Z,94.63
2017-11-18T03:29:27.778Z,94.79
2017-11-18T03:30:33.916Z,94.85
2017-11-18T03:31:39.685Z,93.94
2017-11-18T03:32:45.793Z,93.36
2017-11-18T03:33:52.074Z,92.94
2017-11-18T03:34:58.177Z,92.93
2017-11-18T03:36:08.629Z,93.45
2017-11-18T03:37:14.556Z,93.71
2017-11-18T03:38:20.473Z,93.80
2017-11-18T03:39:26.924Z,94.13
2017-11-18T03:40:33.109Z,94.38
2017-11-18T03:41:39.317Z,94.55
2017-11-18T03:42:45.404Z,94.53
2017-11-18T03:43:55.080Z,94.54
2017-11-18T03:45:01.152Z,94.98
2017-11-18T03:46:06.932Z,94.84
2017-11-18T03:47:12.362Z,95.11
2017-11-18T03:48:18.443Z,95.44
2017-11-18T03:49:24.587Z,95.72
2017-11-18T03:50:29.995Z,95.90
2017-11-18T03:51:36.144Z,95.45
2017-11-18T03:52:42.578Z,94.60
2017-11-18T03:53:48.727Z,94.57
2017-11-18T03:54:54.825Z,94.75
2017-11-18T03:56:00.967Z,95.16
2017-11-18T03:57:07.045Z,95.37
2017-11-18T03:58:13.618Z,95.59
2017-11-18T03:59:23.643Z,95.92
2017-11-18T04:00:29.031Z,96.25
2017-11-18T04:01:34.267Z,96.79
2017-11-18T04:02:40.384Z,97.14
2017-11-18T04:03:46.527Z,97.12
2017-11-18T04:04:52.609Z,96.94
2017-11-18T04:05:59.040Z,97.07
2017-11-18T04:07:05.160Z,97.58
2017-11-18T04:08:11.058Z,97.66
2017-11-18T04:09:17.120Z,97.68
2017-11-18T04:10:24.143Z,97.85
2017-11-18T04:11:29.951Z,97.88
2017-11-18T04:12:36.037Z,97.68
2017-11-18T04:13:42.136Z,97.87
2017-11-18T04:14:47.769Z,97.62
2017-11-18T04:15:53.952Z,97.72
2017-11-18T04:17:00.208Z,97.42
2017-11-18T04:18:05.930Z,97.29
2017-11-18T04:19:12.040Z,97.49
2017-11-18T04:20:17.769Z,97.39
2017-11-18T04:21:23.523Z,97.19
2017-11-18T04:22:30.612Z,96.97
2017-11-18T04:23:36.734Z,97.26
2017-11-18T04:24:42.846Z,97.37
2017-11-18T04:25:49.111Z,97.27
2017-11-18T04:26:55.204Z,97.23
2017-11-18T04:28:01.353Z,97.06
2017-11-18T04:29:07.455Z,96.86
2017-11-18T04:30:13.519Z,96.43
2017-11-18T04:31:21.571Z,96.53
2017-11-18T04:32:27.366Z,96.86
2017-11-18T04:33:33.164Z,96.63
2017-11-18T04:34:39.860Z,96.93
2017-11-18T04:35:46.405Z,97.15
2017-11-18T04:36:52.610Z,97.17
2017-11-18T04:37:58.683Z,97.24
2017-11-18T04:39:04.080Z,97.27
2017-11-18T04:40:10.180Z,97.38
2017-11-18T04:41:16.247Z,97.53
2017-11-18T04:42:22.046Z,97.47
2017-11-18T04:43:28.412Z,97.19
2017-11-18T04:44:34.572Z,96.79
2017-11-18T04:45:40.684Z,96.62
2017-11-18T04:46:47.140Z,96.35
2017-11-18T04:47:53.244Z,96.00
2017-11-18T04:48:58.955Z,96.08
2017-11-18T04:50:11.061Z,96.28
2017-11-18T04:51:18.757Z,96.26
2017-11-18T04:52:24.937Z,95.90
2017-11-18T04:53:30.717Z,95.96
2017-11-18T04:54:36.975Z,96.06
2017-11-18T04:55:43.035Z,96.05
2017-11-18T04:56:49.496Z,96.12
2017-11-18T04:57:55.577Z,95.95
2017-11-18T04:59:01.317Z,96.18
2017-11-18T05:00:07.399Z,96.70
2017-11-18T05:01:13.022Z,96.71
2017-11-18T05:02:18.979Z,96.64
2017-11-18T05:03:25.138Z,96.88
2017-11-18T05:04:31.333Z,96.90
2017-11-18T05:05:37.130Z,96.99
2017-11-18T05:06:43.238Z,96.98
2017-11-18T05:07:52.230Z,96.65
2017-11-18T05:08:58.339Z,96.52
2017-11-18T05:10:04.090Z,96.29
2017-11-18T05:11:09.297Z,96.48
2017-11-18T05:12:15.469Z,96.48
2017-11-18T05:13:21.554Z,96.53
2017-11-18T05:14:27.470Z,96.63
2017-11-18T05:15:33.578Z,96.35
2017-11-18T05:16:39.808Z,96.22
2017-11-18T05:17:45.943Z,96.37
2017-11-18T05:18:53.992Z,96.48
2017-11-18T05:19:59.707Z,96.51
2017-11-18T05:21:05.414Z,96.65
2017-11-18T05:22:11.203Z,96.54
2017-11-18T05:23:16.961Z,96.18
2017-11-18T05:24:22.759Z,96.08
2017-11-18T05:25:28.890Z,96.31
2017-11-18T05:26:34.312Z,95.96
2017-11-18T05:27:40.181Z,95.94
2017-11-18T05:28:46.282Z,96.42
2017-11-18T05:29:52.369Z,96.33
2017-11-18T05:30:58.478Z,96.47
2017-11-18T05:32:03.924Z,96.87
2017-11-18T05:33:10.235Z,96.97
2017-11-18T05:34:16.515Z,97.06
2017-11-18T05:35:22.271Z,97.25
2017-11-18T05:36:27.661Z,96.97
2017-11-18T05:37:33.227Z,97.12
2017-11-18T05:38:38.672Z,97.13
2017-11-18T05:39:44.999Z,97.13
2017-11-18T05:40:50.760Z,97.09
2017-11-18T05:41:56.837Z,97.01
2017-11-18T05:43:02.959Z,97.20
2017-11-18T05:44:09.056Z,97.12
2017-11-18T05:45:15.165Z,96.83
2017-11-18T05:46:21.255Z,96.62
2017-11-18T05:47:27.372Z,96.31
2017-11-18T05:48:33.496Z,96.15
2017-11-18T05:49:39.610Z,96.17
2017-11-18T05:50:45.717Z,95.95
2017-11-18T05:51:51.788Z,95.85
2017-11-18T05:52:57.935Z,95.77
2017-11-18T05:54:04.038Z,95.75
2017-11-18T05:55:10.133Z,96.59
2017-11-18T05:56:16.232Z,96.61
2017-11-18T05:57:22.376Z,96.53
2017-11-18T05:58:28.225Z,96.18
2017-11-18T05:59:34.354Z,96.10
2017-11-18T06:00:39.773Z,95.89
2017-11-18T06:01:51.026Z,95.72
2017-11-18T06:02:56.236Z,95.85
2017-11-18T06:04:02.406Z,96.23
2017-11-18T06:05:07.768Z,96.28
2017-11-18T06:06:14.389Z,96.28
2017-11-18T06:07:20.532Z,96.40
2017-11-18T06:08:26.640Z,96.17
2017-11-18T06:09:32.804Z,96.18
2017-11-18T06:10:38.897Z,96.23
2017-11-18T06:11:45.004Z,96.11
2017-11-18T06:12:51.148Z,96.16
2017-11-18T06:13:57.263Z,96.32
2017-11-18T06:15:08.084Z,96.32
2017-11-18T06:16:14.164Z,96.25
2017-11-18T06:17:19.944Z,96.37
2017-11-18T06:18:26.007Z,96.58
2017-11-18T06:19:32.110Z,96.55
2017-11-18T06:20:38.341Z,96.38
2017-11-18T06:21:44.422Z,96.24
2017-11-18T06:22:50.816Z,95.95
2017-11-18T06:23:56.908Z,95.95
2017-11-18T06:25:03.057Z,96.24
2017-11-18T06:26:09.195Z,95.94
2017-11-18T06:27:15.309Z,96.26
2017-11-18T06:28:21.776Z,96.20
2017-11-18T06:29:27.913Z,96.33
2017-11-18T06:30:33.997Z,96.01
2017-11-18T06:31:40.123Z,96.09
2017-11-18T06:32:46.250Z,96.33
2017-11-18T06:33:52.367Z,96.18
2017-11-18T06:34:58.611Z,96.24
2017-11-18T06:36:11.301Z,96.24
2017-11-18T06:37:17.426Z,96.05
2017-11-18T06:38:23.568Z,96.05
2017-11-18T06:39:29.678Z,95.66
2017-11-18T06:40:36.160Z,95.45
2017-11-18T06:41:42.258Z,95.77
2017-11-18T06:42:48.364Z,95.70
2017-11-18T06:43:54.491Z,95.62
2017-11-18T06:45:00.573Z,95.48
2017-11-18T06:46:06.746Z,95.55
2017-11-18T06:47:13.020Z,95.54
2017-11-18T06:48:19.099Z,95.22
2017-11-18T06:49:25.210Z,94.99
2017-11-18T06:50:34.281Z,94.85
2017-11-18T06:51:40.408Z,95.08
2017-11-18T06:52:46.573Z,95.33
2017-11-18T06:53:52.752Z,95.28
2017-11-18T06:54:58.867Z,95.37
2017-11-18T06:56:05.028Z,95.38
2017-11-18T06:57:11.404Z,95.40
2017-11-18T06:58:17.515Z,95.40
2017-11-18T06:59:23.647Z,95.04
2017-11-18T07:00:29.813Z,95.01
2017-11-18T07:01:35.954Z,94.93
2017-11-18T07:02:42.068Z,94.93
2017-11-18T07:03:48.151Z,95.13
2017-11-18T07:04:54.506Z,95.34
2017-11-18T07:06:00.623Z,95.09
2017-11-18T07:07:06.707Z,94.55
2017-11-18T07:08:13.113Z,94.92
2017-11-18T07:09:19.297Z,94.85
2017-11-18T07:10:25.495Z,94.82
2017-11-18T07:11:31.698Z,94.76
2017-11-18T07:12:37.820Z,94.69
2017-11-18T07:13:44.008Z,95.05
2017-11-18T07:14:50.325Z,94.97
2017-11-18T07:15:55.865Z,95.00
2017-11-18T07:17:02.351Z,95.49
2017-11-18T07:18:08.447Z,95.23
2017-11-18T07:19:14.170Z,95.15
2017-11-18T07:20:20.239Z,94.93
2017-11-18T07:21:26.304Z,95.17
2017-11-18T07:22:32.464Z,95.19
2017-11-18T07:23:38.651Z,94.67
2017-11-18T07:24:44.780Z,94.60
2017-11-18T07:25:50.933Z,94.57
2017-11-18T07:26:57.018Z,94.27
2017-11-18T07:28:03.141Z,94.28
2017-11-18T07:29:09.249Z,94.22
2017-11-18T07:30:15.313Z,94.50
2017-11-18T07:31:21.467Z,94.78
2017-11-18T07:32:27.565Z,94.77
2017-11-18T07:33:33.652Z,94.69
2017-11-18T07:34:39.815Z,94.28
2017-11-18T07:35:45.927Z,94.04
2017-11-18T07:36:52.018Z,93.92
2017-11-18T07:37:58.137Z,93.77
2017-11-18T07:39:03.557Z,94.11
2017-11-18T07:40:09.653Z,94.12
2017-11-18T07:41:15.789Z,94.10
2017-11-18T07:42:21.933Z,93.40
2017-11-18T07:43:28.038Z,93.36
2017-11-18T07:44:34.161Z,93.18
2017-11-18T07:45:40.272Z,93.20
2017-11-18T07:46:46.385Z,93.37
2017-11-18T07:47:52.842Z,93.12
2017-11-18T07:49:03.804Z,93.16
2017-11-18T07:50:09.595Z,93.16
2017-11-18T07:51:15.717Z,93.29
2017-11-18T07:52:22.280Z,93.35
2017-11-18T07:53:28.457Z,93.21
2017-11-18T07:54:35.241Z,93.20
2017-11-18T07:55:42.325Z,93.26
2017-11-18T07:56:50.461Z,93.37
2017-11-18T07:57:58.215Z,93.28
2017-11-18T07:59:04.357Z,93.01
2017-11-18T08:00:10.464Z,92.61
2017-11-18T08:01:16.846Z,92.47
2017-11-18T08:02:23.001Z,92.43
2017-11-18T08:03:30.438Z,92.46
2017-11-18T08:04:36.612Z,92.55
2017-11-18T08:05:42.799Z,92.08
2017-11-18T08:06:48.546Z,92.01
2017-11-18T08:07:54.864Z,91.88
2017-11-18T08:09:00.985Z,92.19
2017-11-18T08:10:07.176Z,92.03
2017-11-18T08:11:13.437Z,91.99
2017-11-18T08:12:19.628Z,92.10
2017-11-18T08:13:25.786Z,92.13
2017-11-18T08:14:31.947Z,92.05
2017-11-18T08:15:38.074Z,92.16
2017-11-18T08:16:44.165Z,92.27
2017-11-18T08:17:50.298Z,92.57
2017-11-18T08:18:56.425Z,92.56
2017-11-18T08:20:02.575Z,92.46
2017-11-18T08:21:09.024Z,92.60
2017-11-18T08:22:15.221Z,92.59
2017-11-18T08:23:22.509Z,92.43
2017-11-18T08:24:28.912Z,92.47
2017-11-18T08:25:35.087Z,92.30
2017-11-18T08:26:41.216Z,92.16
2017-11-18T08:27:47.395Z,92.11
2017-11-18T08:28:53.513Z,91.70
2017-11-18T08:29:59.573Z,91.54
2017-11-18T08:31:05.720Z,91.12
2017-11-18T08:32:11.807Z,91.02
2017-11-18T08:33:18.091Z,90.99
2017-11-18T08:34:24.204Z,91.03
2017-11-18T08:35:30.606Z,90.88
2017-11-18T08:36:37.236Z,90.91
2017-11-18T08:37:43.119Z,90.60
2017-11-18T08:38:49.285Z,90.94
2017-11-18T08:39:55.453Z,91.07
2017-11-18T08:41:01.544Z,90.87
2017-11-18T08:42:07.656Z,90.45
2017-11-18T08:43:14.152Z,90.43
2017-11-18T08:44:20.455Z,90.77
2017-11-18T08:45:26.603Z,90.66
2017-11-18T08:46:32.740Z,90.79
2017-11-18T08:47:38.862Z,90.54
2017-11-18T08:48:44.940Z,90.63
2017-11-18T08:49:51.062Z,90.62
2017-11-18T08:50:57.168Z,90.58
2017-11-18T08:52:03.264Z,90.60
2017-11-18T08:53:09.405Z,90.55
2017-11-18T08:54:15.486Z,90.32
2017-11-18T08:55:21.198Z,90.15
2017-11-18T08:56:26.893Z,89.61
2017-11-18T08:57:33.030Z,89.49
2017-11-18T08:58:39.197Z,89.53
2017-11-18T08:59:44.635Z,89.68
2017-11-18T09:00:50.046Z,89.58
2017-11-18T09:01:55.987Z,89.35
2017-11-18T09:03:01.511Z,89.43
2017-11-18T09:04:07.659Z,89.42
2017-11-18T09:05:13.588Z,89.60
2017-11-18T09:06:19.392Z,89.47
2017-11-18T09:07:25.481Z,89.41
2017-11-18T09:08:31.247Z,89.68
2017-11-18T09:09:37.400Z,89.83
2017-11-18T09:10:43.548Z,89.76
2017-11-18T09:11:49.690Z,89.62
2017-11-18T09:12:55.873Z,89.90
2017-11-18T09:14:01.957Z,89.80
2017-11-18T09:15:08.059Z,89.61
2017-11-18T09:16:14.162Z,88.94
2017-11-18T09:17:21.209Z,88.85
2017-11-18T09:18:27.373Z,88.47
2017-11-18T09:19:33.514Z,87.92
2017-11-18T09:20:39.409Z,88.13
2017-11-18T09:21:45.520Z,87.85
2017-11-18T09:22:51.639Z,87.89
2017-11-18T09:23:57.948Z,88.01
2017-11-18T09:25:04.078Z,87.93
2017-11-18T09:26:10.193Z,87.92
2017-11-18T09:27:16.307Z,88.00
2017-11-18T09:28:29.489Z,87.59
2017-11-18T09:29:35.872Z,87.49
2017-11-18T09:30:41.965Z,87.72
2017-11-18T09:31:48.046Z,87.82
2017-11-18T09:32:54.167Z,87.68
2017-11-18T09:34:03.168Z,87.56
2017-11-18T09:35:08.974Z,87.39
2017-11-18T09:36:15.388Z,87.08
2017-11-18T09:37:21.570Z,87.00
2017-11-18T09:38:27.756Z,87.03
2017-11-18T09:39:33.868Z,86.97
2017-11-18T09:40:40.040Z,87.23
2017-11-18T09:41:46.200Z,87.36
2017-11-18T09:42:52.361Z,86.69
2017-11-18T09:43:58.452Z,86.73
2017-11-18T09:45:04.213Z,86.86
2017-11-18T09:46:10.332Z,87.07
2017-11-18T09:47:16.496Z,87.03
2017-11-18T09:48:22.902Z,86.99
2017-11-18T09:49:30.090Z,86.65
2017-11-18T09:50:36.302Z,86.07
2017-11-18T09:51:42.422Z,86.03
2017-11-18T09:52:48.532Z,85.95
2017-11-18T09:53:54.728Z,85.87
2017-11-18T09:55:00.840Z,85.57
2017-11-18T09:56:06.947Z,85.41
2017-11-18T09:57:13.146Z,84.95
2017-11-18T09:58:24.281Z,84.74
2017-11-18T09:59:30.584Z,84.92
2017-11-18T10:00:36.706Z,84.82
2017-11-18T10:01:49.585Z,84.92
2017-11-18T10:02:55.715Z,84.48
2017-11-18T10:04:01.325Z,84.50
2017-11-18T10:05:06.886Z,84.47
2017-11-18T10:06:12.389Z,84.32
2017-11-18T10:07:17.874Z,83.90
2017-11-18T10:08:24.073Z,83.30
2017-11-18T10:09:29.906Z,83.40
2017-11-18T10:10:36.077Z,83.28
2017-11-18T10:11:42.248Z,83.25
2017-11-18T10:12:48.424Z,83.16
2017-11-18T10:13:54.615Z,83.38
2017-11-18T10:15:04.956Z,83.48
2017-11-18T10:16:11.400Z,83.02
2017-11-18T10:17:17.706Z,82.49
2017-11-18T10:18:23.971Z,82.34
2017-11-18T10:19:30.434Z,82.14
2017-11-18T10:20:36.631Z,82.26
2017-11-18T10:21:42.776Z,82.14
2017-11-18T10:22:48.948Z,81.85
2017-11-18T10:23:55.174Z,81.83
2017-11-18T10:25:01.408Z,81.29
2017-11-18T10:26:07.564Z,81.62
2017-11-18T10:27:13.961Z,81.67
2017-11-18T10:28:20.128Z,81.37
2017-11-18T10:29:32.171Z,81.45
2017-11-18T10:30:38.338Z,80.84
2017-11-18T10:31:44.143Z,80.32
2017-11-18T10:32:50.340Z,79.96
2017-11-18T10:33:56.527Z,80.21
2017-11-18T10:35:02.678Z,79.80
2017-11-18T10:36:08.885Z,79.52
2017-11-18T10:37:15.046Z,79.11
2017-11-18T10:38:21.562Z,78.14
2017-11-18T10:39:27.687Z,78.25
2017-11-18T10:40:33.833Z,77.82
2017-11-18T10:41:40.017Z,77.61
2017-11-18T10:42:46.200Z,77.41
2017-11-18T10:43:52.322Z,77.32
2017-11-18T10:44:58.139Z,77.24
2017-11-18T10:46:03.947Z,77.58
2017-11-18T10:47:10.906Z,77.14
2017-11-18T10:48:17.322Z,76.72
2017-11-18T10:49:23.461Z,76.60
2017-11-18T10:50:29.636Z,77.02
2017-11-18T10:51:35.779Z,76.15
2017-11-18T10:52:41.888Z,76.75
2017-11-18T10:53:48.076Z,76.46
2017-11-18T10:54:54.217Z,76.65
2017-11-18T10:56:00.027Z,76.78
2017-11-18T10:57:06.136Z,76.81
2017-11-18T10:58:12.425Z,76.51
2017-11-18T10:59:18.601Z,76.24
2017-11-18T11:00:24.069Z,76.28
2017-11-18T11:01:30.024Z,76.28
2017-11-18T11:02:36.231Z,76.40
2017-11-18T11:03:42.407Z,76.53
2017-11-18T11:04:48.576Z,76.83
2017-11-18T11:05:54.071Z,76.69
2017-11-18T11:07:00.127Z,76.47
2017-11-18T11:08:05.993Z,76.37
2017-11-18T11:09:12.153Z,76.84
2017-11-18T11:10:18.284Z,76.66
2017-11-18T11:11:24.459Z,76.13
2017-11-18T11:12:30.301Z,76.61
2017-11-18T11:13:36.304Z,76.95
2017-11-18T11:14:42.504Z,76.96
2017-11-18T11:15:48.659Z,76.69
2017-11-18T11:16:55.310Z,76.04
2017-11-18T11:18:01.171Z,75.92
2017-11-18T11:19:07.334Z,76.32
2017-11-18T11:20:13.186Z,76.21
2017-11-18T11:21:19.388Z,75.83
2017-11-18T11:23:36.766Z,74.72
2017-11-18T11:24:43.131Z,75.47
2017-11-18T11:25:49.289Z,75.34
2017-11-18T11:26:55.447Z,75.20
2017-11-18T11:28:01.601Z,74.82
2017-11-18T11:29:07.741Z,74.93
2017-11-18T11:30:13.244Z,75.51
2017-11-18T11:31:19.191Z,75.37
2017-11-18T11:32:25.019Z,75.19
2017-11-18T11:33:30.836Z,75.72
2017-11-18T11:34:37.033Z,75.33
2017-11-18T11:35:43.225Z,75.18
2017-11-18T11:36:49.073Z,74.96
2017-11-18T11:37:55.272Z,75.43
2017-11-18T11:39:01.452Z,75.89
2017-11-18T11:40:07.673Z,75.67
2017-11-18T11:41:13.894Z,75.65
2017-11-18T11:42:20.132Z,75.76
2017-11-18T11:43:26.368Z,75.17
2017-11-18T11:44:38.589Z,75.15
2017-11-18T11:45:44.188Z,75.19
2017-11-18T11:46:49.878Z,74.81
2017-11-18T11:47:55.766Z,74.95
2017-11-18T11:49:01.955Z,74.40
2017-11-18T11:50:07.776Z,74.45
2017-11-18T11:51:13.773Z,74.63
2017-11-18T11:52:19.934Z,74.51
2017-11-18T11:53:26.088Z,74.54
2017-11-18T11:54:32.071Z,74.35
2017-11-18T11:55:38.046Z,74.45
2017-11-18T11:56:44.173Z,74.11
2017-11-18T11:57:50.373Z,74.21
2017-11-18T11:58:56.525Z,73.97
2017-11-18T12:00:02.325Z,73.61
2017-11-18T12:01:08.471Z,73.92
2017-11-18T12:02:14.340Z,73.77
2017-11-18T12:03:19.854Z,73.61
2017-11-18T12:04:26.072Z,73.88
2017-11-18T12:05:31.837Z,73.81
2017-11-18T12:06:37.616Z,73.35
2017-11-18T12:07:43.795Z,73.06
2017-11-18T12:08:49.967Z,72.83
2017-11-18T12:09:55.804Z,73.39
2017-11-18T12:11:01.969Z,73.09
2017-11-18T12:12:08.156Z,73.10
2017-11-18T12:13:14.401Z,73.29
2017-11-18T12:14:20.207Z,73.60
2017-11-18T12:15:26.366Z,73.71
2017-11-18T12:16:32.222Z,73.56
2017-11-18T12:17:38.395Z,72.97
2017-11-18T12:18:44.578Z,72.89
2017-11-18T12:19:50.703Z,73.27
2017-11-18T12:20:56.155Z,73.12
2017-11-18T12:22:02.209Z,73.21
2017-11-18T12:23:07.831Z,73.60
2017-11-18T12:24:13.999Z,72.86
2017-11-18T12:25:19.816Z,73.00
2017-11-18T12:26:25.820Z,73.00
2017-11-18T12:27:31.673Z,73.05
2017-11-18T12:28:37.863Z,72.71
2017-11-18T12:29:43.995Z,73.16
2017-11-18T12:30:49.947Z,73.05
2017-11-18T12:31:56.115Z,73.06
2017-11-18T12:33:02.300Z,72.79
2017-11-18T12:34:08.431Z,72.70
2017-11-18T12:35:14.345Z,72.33
2017-11-18T12:36:20.500Z,72.36
2017-11-18T12:37:26.361Z,72.37
2017-11-18T12:38:32.350Z,72.60
2017-11-18T12:39:38.584Z,72.56
2017-11-18T12:40:44.488Z,72.32
2017-11-18T12:41:50.638Z,72.10
2017-11-18T12:42:56.897Z,72.21
2017-11-18T12:44:03.368Z,72.77
2017-11-18T12:45:09.125Z,72.37
2017-11-18T12:46:17.370Z,71.92
2017-11-18T12:47:23.331Z,71.87
2017-11-18T12:48:29.567Z,72.12
2017-11-18T12:49:35.360Z,72.42
2017-11-18T12:50:41.542Z,72.25
2017-11-18T12:51:47.697Z,71.77
2017-11-18T12:52:53.834Z,72.41
2017-11-18T12:53:59.965Z,72.31
2017-11-18T12:55:06.104Z,71.91
2017-11-18T12:56:12.263Z,71.72
2017-11-18T12:57:18.410Z,72.00
2017-11-18T12:58:24.226Z,72.34
2017-11-18T12:59:30.356Z,72.06
2017-11-18T13:00:35.849Z,72.23
2017-11-18T13:01:41.842Z,72.25
2017-11-18T13:02:47.995Z,72.78
2017-11-18T13:03:54.144Z,72.75
2017-11-18T13:05:00.301Z,72.60
2017-11-18T13:06:06.123Z,72.65
2017-11-18T13:07:12.336Z,72.80
2017-11-18T13:08:17.829Z,72.72
2017-11-18T13:09:24.169Z,72.85
2017-11-18T13:10:30.145Z,73.09
2017-11-18T13:11:36.299Z,72.68
2017-11-18T13:12:42.440Z,72.89
2017-11-18T13:13:48.697Z,72.72
2017-11-18T13:14:54.880Z,72.57
2017-11-18T13:16:01.016Z,72.73
2017-11-18T13:17:07.175Z,73.25
2017-11-18T13:18:13.371Z,72.98
2017-11-18T13:19:19.582Z,72.65
2017-11-18T13:20:25.747Z,72.47
2017-11-18T13:21:31.936Z,72.62
2017-11-18T13:22:38.057Z,72.64
2017-11-18T13:23:44.009Z,72.64
2017-11-18T13:24:50.157Z,72.80
2017-11-18T13:25:56.335Z,72.21
2017-11-18T13:27:02.315Z,72.48
2017-11-18T13:28:08.462Z,72.42
2017-11-18T13:29:14.616Z,72.51
2017-11-18T13:30:21.915Z,72.60
2017-11-18T13:31:28.098Z,72.47
2017-11-18T13:32:33.868Z,72.30
2017-11-18T13:33:40.009Z,71.79
2017-11-18T13:34:45.865Z,71.85
2017-11-18T13:35:51.659Z,72.15
2017-11-18T13:36:57.419Z,72.27
2017-11-18T13:38:03.591Z,72.44
2017-11-18T13:39:10.254Z,72.45
2017-11-18T13:40:16.038Z,72.32
2017-11-18T13:41:22.858Z,72.49
2017-11-18T13:42:28.995Z,72.20
2017-11-18T13:43:35.169Z,72.31
2017-11-18T13:44:41.288Z,71.95
2017-11-18T13:45:47.151Z,71.92
2017-11-18T13:46:53.289Z,71.94
2017-11-18T13:47:59.418Z,71.74
2017-11-18T13:49:04.891Z,71.78
2017-11-18T13:50:11.367Z,72.13
2017-11-18T13:51:17.516Z,71.98
2017-11-18T13:52:23.652Z,72.00
2017-11-18T13:53:29.787Z,71.34
2017-11-18T13:54:35.960Z,71.41
2017-11-18T13:55:42.123Z,71.38
2017-11-18T13:56:48.244Z,71.50
2017-11-18T13:57:54.389Z,71.35
2017-11-18T13:59:00.548Z,71.56
2017-11-18T14:00:06.715Z,71.65
2017-11-18T14:01:12.357Z,71.78
2017-11-18T14:02:18.510Z,71.47
2017-11-18T14:03:24.277Z,71.56
2017-11-18T14:04:30.389Z,71.61
2017-11-18T14:05:35.942Z,71.97
2017-11-18T14:06:41.748Z,71.48
2017-11-18T14:07:47.916Z,71.82
2017-11-18T14:08:54.070Z,72.02
2017-11-18T14:10:00.227Z,71.97
2017-11-18T14:11:06.398Z,72.13
2017-11-18T14:12:12.574Z,72.03
2017-11-18T14:13:18.761Z,72.40
2017-11-18T14:14:24.229Z,72.64